tititudorancea.com
Station Historical Data
Daily Summary for July 13, 2018 Units:  Metric    English   Both
« Previous Day
Next Day »
Daily Weekly Monthly Yearly Custom
  High: Low: Average:
Temperature: -17.8 °C -0.7 °C 5.1 °C
Dew Point: -17.8 °C -1.4 °C 2.5 °C
Humidity: Humidity % 53 % 85 %
Wind Speed: 0 km/h 0 km/h 1 km/h
Wind Gust: 0 km/h - -
Wind:- - SSW
Pressure: 0 hPa 1021.2 hPa -
Precipitation: 0.25 mm    
Historical Graphs
 
 
Ararat weather Find more about Weather in Ararat, AU


 



 


Tabular Data for July 13, 2018
Time Temperature Dew Point Pressure Wind Wind Speed Wind Gust Humidity Rainfall Rate (Hourly)
-17.8 °C -17.8 °C 0 hPa Calm     Humidity % 0 mm
00:04 4.8 °C 3.9 °C 1022.6 hPa Calm     94 % 0 mm
00:09 4.8 °C 3.9 °C 1022.6 hPa North 5.6 km/h 0.6 km/h 94 % 0 mm
00:14 4.8 °C 4.1 °C 1022.9 hPa South 5.6 km/h 1.3 km/h 95 % 0 mm
00:19 4.8 °C 4.1 °C 1022.9 hPa SSW 7.4 km/h 3.2 km/h 95 % 0 mm
00:24 4.8 °C 4.1 °C 1022.9 hPa North 6.4 km/h 4.5 km/h 95 % 0 mm
00:29 4.8 °C 4.1 °C 1022.9 hPa North 5.6 km/h 3.1 km/h 95 % 0 mm
00:34 4.8 °C 4.1 °C 1022.9 hPa Calm     95 % 0 mm
00:39 4.7 °C 3.8 °C 1022.9 hPa North 1.9 km/h 0.6 km/h 94 % 0 mm
00:44 4.7 °C 3.8 °C 1022.9 hPa Calm     94 % 0 mm
00:49 4.4 °C 3.6 °C 1022.9 hPa Calm     94 % 0 mm
00:54 4 °C 2.9 °C 1022.9 hPa Calm     93 % 0 mm
00:59 3.5 °C 2.5 °C 1022.9 hPa Calm     93 % 0 mm
01:04 3.2 °C 2.3 °C 1022.6 hPa Calm     94 % 0 mm
01:09 3 °C 2.1 °C 1022.6 hPa Calm     94 % 0 mm
01:14 2.9 °C 2 °C 1022.6 hPa South 1.6 km/h 1.1 km/h 94 % 0 mm
01:19 2.9 °C 2.1 °C 1022.6 hPa North 3.7 km/h   94 % 0 mm
01:24 3 °C 2.3 °C 1022.6 hPa Calm     95 % 0 mm
01:29 3.1 °C 2.4 °C 1022.6 hPa Calm     95 % 0 mm
01:34 3.2 °C 2.4 °C 1022.6 hPa Calm     95 % 0 mm
01:39 3.2 °C 2.5 °C 1022.6 hPa Calm     95 % 0 mm
01:44 3.3 °C 2.6 °C 1022.6 hPa Calm     95 % 0 mm
01:49 3.4 °C 2.7 °C 1022.9 hPa Calm     95 % 0 mm
01:54 3.6 °C 2.8 °C 1022.6 hPa North 1.9 km/h 2.1 km/h 95 % 0 mm
01:59 3.7 °C 3 °C 1022.6 hPa Calm     95 % 0 mm
02:04 3.8 °C 3.1 °C 1022.6 hPa Calm     95 % 0 mm
02:09 3.8 °C 3.1 °C 1022.6 hPa Calm     95 % 0 mm
02:14 3.8 °C 3.1 °C 1022.6 hPa Calm     95 % 0 mm
02:19 3.9 °C 3.2 °C 1022.6 hPa Calm     95 % 0 mm
02:24 3.9 °C 3.2 °C 1022.6 hPa Calm     95 % 0 mm
02:29 3.9 °C 3.2 °C 1022.6 hPa Calm     95 % 0 mm
02:34 3.9 °C 3.2 °C 1022.6 hPa Calm     95 % 0 mm
02:39 3.9 °C 3.2 °C 1022.6 hPa Calm     95 % 0 mm
02:44 3.9 °C 3.2 °C 1022.6 hPa Calm     95 % 0 mm
02:49 4 °C 3.3 °C 1022.6 hPa Calm     95 % 0 mm
02:54 4 °C 3.3 °C 1022.2 hPa Calm     95 % 0 mm
02:59 4 °C 3.3 °C 1022.2 hPa Calm     95 % 0 mm
03:04 3.9 °C 3.2 °C 1022.2 hPa Calm     95 % 0 mm
03:09 3.8 °C 3.1 °C 1022.2 hPa Calm     95 % 0 mm
03:14 3.7 °C 2.8 °C 1022.2 hPa Calm     94 % 0 mm
03:19 3.4 °C 2.7 °C 1022.2 hPa Calm     95 % 0 mm
03:24 3.2 °C 2.3 °C 1022.2 hPa Calm     94 % 0 mm
03:29 3.2 °C 2.5 °C 1022.2 hPa Calm     95 % 0 mm
03:34 3.1 °C 2.4 °C 1022.2 hPa Calm     95 % 0 mm
03:39 2.9 °C 2.1 °C 1022.2 hPa Calm     94 % 0 mm
03:44 2.9 °C 2.2 °C 1021.9 hPa Calm     95 % 0 mm
03:49 2.8 °C 2.1 °C 1021.9 hPa Calm     95 % 0 mm
03:54 2.7 °C 1.8 °C 1021.9 hPa Calm     94 % 0 mm
03:59 2.6 °C 1.8 °C 1021.9 hPa Calm     95 % 0 mm
04:04 2.4 °C 1.5 °C 1021.9 hPa Calm     94 % 0 mm
04:09 2.3 °C 1.6 °C 1021.9 hPa Calm     95 % 0 mm
04:14 2.4 °C 1.7 °C 1021.9 hPa Calm     95 % 0 mm
04:19 2.4 °C 1.7 °C 1021.9 hPa Calm     95 % 0 mm
04:24 2.3 °C 1.6 °C 1021.9 hPa Calm     95 % 0 mm
04:29 2.2 °C 1.5 °C 1021.9 hPa Calm     95 % 0 mm
04:34 2 °C 1.1 °C 1021.9 hPa Calm     94 % 0 mm
04:39 1.9 °C 1.2 °C 1021.9 hPa Calm     95 % 0 mm
04:44 1.7 °C 1 °C 1021.9 hPa Calm     95 % 0 mm
04:49 1.7 °C 1 °C 1021.9 hPa Calm     95 % 0 mm
04:54 1.7 °C 1 °C 1021.9 hPa Calm     95 % 0 mm
04:59 1.7 °C 1 °C 1021.9 hPa Calm     95 % 0 mm
05:04 1.7 °C 0.9 °C 1021.9 hPa Calm     95 % 0 mm
05:09 1.7 °C 0.9 °C 1021.6 hPa South 1.9 km/h 0.3 km/h 95 % 0 mm
05:14 1.8 °C 1.1 °C 1021.9 hPa South 1.9 km/h   95 % 0 mm
05:19 1.8 °C 1.1 °C 1021.6 hPa Calm     95 % 0 mm
05:24 1.7 °C 1 °C 1021.6 hPa Calm     95 % 0 mm
05:29 1.6 °C 0.9 °C 1021.6 hPa Calm     95 % 0 mm
05:34 1.4 °C 0.7 °C 1021.6 hPa Calm     95 % 0 mm
05:39 1.3 °C 0.6 °C 1021.6 hPa Calm     95 % 0 mm
05:44 1.4 °C 0.7 °C 1021.6 hPa Calm     95 % 0 mm
05:49 1.2 °C 0.5 °C 1021.6 hPa North 3.7 km/h 1.9 km/h 95 % 0 mm
05:54 1.3 °C 0.6 °C 1021.9 hPa South 1.9 km/h   95 % 0 mm
05:59 1.3 °C 0.6 °C 1021.6 hPa Calm     95 % 0 mm
06:04 1.3 °C 0.6 °C 1021.6 hPa Calm     95 % 0 mm
06:09 1.3 °C 0.6 °C 1021.6 hPa Calm     95 % 0 mm
06:14 1.2 °C 0.5 °C 1021.9 hPa Calm     95 % 0 mm
06:19 1.2 °C 0.4 °C 1021.9 hPa Calm     95 % 0 mm
06:24 1 °C 0.3 °C 1021.9 hPa Calm     95 % 0 mm
06:28 0.8 °C 0.1 °C 1021.9 hPa Calm     95 % 0 mm
06:34 0.8 °C 0.1 °C 1021.9 hPa Calm     95 % 0 mm
06:39 0.7 °C 0 °C 1021.9 hPa Calm     95 % 0 mm
06:39 0.7 °C 0 °C 1021.9 hPa Calm     95 % 0 mm
06:44 0.5 °C -0.2 °C 1022.2 hPa Calm     95 % 0.25 mm
06:47 0.4 °C -0.3 °C 1022.2 hPa Calm     95 % 0.25 mm
06:49 0.4 °C -0.3 °C 1022.2 hPa Calm     95 % 0.25 mm
06:54 0.2 °C -0.5 °C 1022.2 hPa Calm     95 % 0.25 mm
06:59 0.1 °C -0.7 °C 1022.2 hPa Calm     95 % 0.25 mm
07:04 -0.1 °C -0.8 °C 1022.6 hPa Calm     95 % 0.25 mm
07:09 -0.2 °C -0.9 °C 1022.6 hPa Calm     95 % 0.25 mm
07:14 -0.3 °C -1.1 °C 1022.6 hPa Calm     95 % 0.25 mm
07:19 -0.4 °C -1.2 °C 1022.6 hPa Calm     95 % 0.25 mm
07:24 -0.6 °C -1.3 °C 1022.9 hPa Calm     95 % 0.25 mm
07:29 -0.6 °C -1.3 °C 1022.9 hPa Calm     95 % 0.25 mm
07:34 -0.7 °C -1.4 °C 1022.9 hPa Calm     95 % 0.25 mm
07:39 -0.7 °C -1.4 °C 1022.9 hPa Calm     95 % 0.25 mm
07:44 -0.7 °C -1.4 °C 1022.9 hPa Calm     95 % 0 mm
07:49 -0.7 °C -1.4 °C 1022.9 hPa Calm     95 % 0 mm
07:54 -0.6 °C -1.2 °C 1022.9 hPa Calm     96 % 0 mm
07:59 -0.6 °C -1.3 °C 1022.9 hPa Calm     95 % 0 mm
08:04 -0.6 °C -1.3 °C 1022.9 hPa Calm     95 % 0 mm
08:09 -0.5 °C -1.1 °C 1023.2 hPa Calm     96 % 0 mm
08:14 -0.4 °C -0.9 °C 1023.2 hPa Calm     96 % 0 mm
08:19 -0.3 °C -0.9 °C 1023.2 hPa Calm     96 % 0 mm
08:24 -0.2 °C -0.8 °C 1023.2 hPa Calm     96 % 0 mm
08:29 -0.1 °C -0.6 °C 1023.2 hPa Calm     96 % 0 mm
08:34 0.1 °C -0.5 °C 1023.2 hPa Calm     96 % 0 mm
08:39 0.2 °C -0.4 °C 1023.2 hPa Calm     96 % 0 mm
08:44 0.3 °C -0.3 °C 1023.6 hPa Calm     96 % 0 mm
08:49 0.4 °C -0.1 °C 1023.2 hPa Calm     96 % 0 mm
08:54 0.8 °C 0.2 °C 1023.6 hPa Calm     96 % 0 mm
08:59 1.1 °C 0.5 °C 1023.6 hPa Calm     96 % 0 mm
09:04 1.4 °C 1 °C 1023.6 hPa Calm     97 % 0 mm
09:09 1.8 °C 1.3 °C 1023.6 hPa Calm     97 % 0 mm
09:14 2 °C 1.6 °C 1023.6 hPa Calm     97 % 0 mm
09:19 2.8 °C 2.4 °C 1023.6 hPa Calm     97 % 0 mm
09:24 3.6 °C 3.1 °C 1023.6 hPa Calm     97 % 0 mm
09:29 4.1 °C 3.7 °C 1023.6 hPa Calm     97 % 0 mm
09:34 4.6 °C 4.1 °C 1023.6 hPa Calm     97 % 0 mm
09:39 4.9 °C 4.5 °C 1023.6 hPa Calm     97 % 0 mm
09:44 5.4 °C 4.9 °C 1023.6 hPa Calm     97 % 0 mm
09:49 5.8 °C 5.3 °C 1023.6 hPa Calm     97 % 0 mm
09:54 5.9 °C 5.4 °C 1023.6 hPa North 1.9 km/h   97 % 0 mm
09:59 6.1 °C 5.6 °C 1023.6 hPa Calm     97 % 0 mm
10:04 6.2 °C 5.7 °C 1023.6 hPa Calm     97 % 0 mm
10:09 6 °C 5.6 °C 1023.6 hPa Calm   0.3 km/h 97 % 0 mm
10:14 6.2 °C 5.6 °C 1023.6 hPa Calm     96 % 0 mm
10:19 6.7 °C 6.1 °C 1023.6 hPa Calm     96 % 0 mm
10:24 7 °C 6.6 °C 1023.9 hPa Calm     97 % 0 mm
10:29 7.4 °C 6.8 °C 1023.9 hPa South 1.9 km/h 0.2 km/h 96 % 0 mm
10:34 7.7 °C 7.1 °C 1023.9 hPa South 1.9 km/h 0.5 km/h 96 % 0 mm
10:39 7.9 °C 7.1 °C 1023.9 hPa South 3.7 km/h 1.4 km/h 95 % 0 mm
10:44 8.1 °C 7.3 °C 1023.9 hPa SSW 1.9 km/h 0.3 km/h 95 % 0 mm
10:49 8.5 °C 7.6 °C 1023.9 hPa SSW 1.9 km/h 0.6 km/h 94 % 0 mm
10:54 8.8 °C 7.7 °C 1023.9 hPa South 3.7 km/h 1.9 km/h 93 % 0 mm
10:59 9.2 °C 8 °C 1023.6 hPa South 1.9 km/h 0.3 km/h 92 % 0 mm
11:04 9.6 °C 8.1 °C 1023.6 hPa South 3.7 km/h 0.8 km/h 90 % 0 mm
11:09 9.7 °C 8 °C 1023.6 hPa South 3.2 km/h 1.6 km/h 89 % 0 mm
11:14 10 °C 7.6 °C 1023.6 hPa North 7.4 km/h 4.2 km/h 85 % 0 mm
11:19 9.9 °C 7.2 °C 1023.6 hPa South 7.4 km/h 4.5 km/h 83 % 0 mm
11:24 10.1 °C 7.1 °C 1023.6 hPa South 7.4 km/h 5.3 km/h 82 % 0 mm
11:29 10.2 °C 7.1 °C 1023.6 hPa South 6.4 km/h 2.3 km/h 81 % 0 mm
11:34 10.2 °C 7.1 °C 1023.6 hPa South 5.6 km/h 1.6 km/h 81 % 0 mm
11:39 10.4 °C 7.2 °C 1023.2 hPa South 5.6 km/h 3.5 km/h 80 % 0 mm
11:44 10.8 °C 7.3 °C 1023.2 hPa South 1.9 km/h   79 % 0 mm
11:49 10.9 °C 7.3 °C 1023.2 hPa South 4.8 km/h 0.6 km/h 78 % 0 mm
11:54 11.1 °C 7.2 °C 1023.2 hPa South 4.8 km/h 0.5 km/h 77 % 0 mm
11:59 11.1 °C 7.2 °C 1023.2 hPa SSW 5.6 km/h 2.4 km/h 77 % 0 mm
12:04 11.2 °C 6.9 °C 1022.9 hPa South 3.2 km/h 0.8 km/h 75 % 0 mm
12:09 11 °C 6.6 °C 1022.9 hPa SSW 1.9 km/h 0.2 km/h 74 % 0 mm
12:14 10.8 °C 6.4 °C 1022.9 hPa South 1.9 km/h 0.6 km/h 74 % 0 mm
12:19 10.9 °C 6.8 °C 1022.9 hPa SSW 5.6 km/h 3.2 km/h 76 % 0 mm
12:24 11.1 °C 6.6 °C 1022.6 hPa SSW 7.4 km/h 3.1 km/h 74 % 0 mm
12:29 11.3 °C 6.6 °C 1022.6 hPa South 7.4 km/h 2.4 km/h 73 % 0 mm
12:34 11.3 °C 6.4 °C 1022.6 hPa SSW 4.8 km/h 4.5 km/h 72 % 0 mm
12:39 11.1 °C 6.1 °C 1022.6 hPa South 3.7 km/h   71 % 0 mm
12:44 11 °C 6.2 °C 1022.6 hPa South 5.6 km/h 3.7 km/h 72 % 0 mm
12:49 11.1 °C 6.2 °C 1022.2 hPa South 5.6 km/h 4.5 km/h 72 % 0 mm
12:54 10.9 °C 5.7 °C 1022.2 hPa SSW 3.7 km/h 0.8 km/h 70 % 0 mm
12:59 10.7 °C 5.2 °C 1022.2 hPa South 3.7 km/h 0.6 km/h 69 % 0 mm
13:04 10.9 °C 5.8 °C 1022.2 hPa South 1.9 km/h 0.2 km/h 71 % 0 mm
13:09 11.3 °C 5.6 °C 1022.2 hPa South 8 km/h 1.8 km/h 68 % 0 mm
13:14 11.7 °C 5.6 °C 1021.9 hPa South 7.4 km/h 2.6 km/h 66 % 0 mm
13:19 11.9 °C 5.3 °C 1021.9 hPa South 7.4 km/h 5.8 km/h 64 % 0 mm
13:24 11.7 °C 5.6 °C 1021.9 hPa SSW 5.6 km/h 3.7 km/h 66 % 0 mm
13:29 11.3 °C 5 °C 1021.9 hPa SSW 3.7 km/h 1.4 km/h 65 % 0 mm
13:34 11 °C 5.1 °C 1021.9 hPa South 4.8 km/h 2.1 km/h 67 % 0 mm
13:39 10.9 °C 4.8 °C 1021.9 hPa South 3.2 km/h 1.9 km/h 66 % 0 mm
13:44 11.2 °C 4.8 °C 1021.6 hPa SSW 1.9 km/h 1.1 km/h 65 % 0 mm
13:49 11.3 °C 4.8 °C 1021.6 hPa SSW 3.2 km/h 1 km/h 64 % 0 mm
13:54 11.4 °C 4.7 °C 1021.6 hPa South 7.4 km/h 3.4 km/h 63 % 0 mm
13:59 11.8 °C 5 °C 1021.6 hPa South 8 km/h 6.1 km/h 63 % 0 mm
14:04 11.6 °C 4.7 °C 1021.6 hPa South 7.4 km/h 4.2 km/h 63 % 0 mm
14:09 11.3 °C 4.7 °C 1021.6 hPa South 5.6 km/h 1.8 km/h 64 % 0 mm
14:14 10.9 °C 4.8 °C 1021.6 hPa South 3.7 km/h 0.6 km/h 66 % 0 mm
14:19 10.7 °C 4.4 °C 1021.2 hPa South 1.9 km/h 0.3 km/h 65 % 0 mm
14:24 10.6 °C 4.5 °C 1021.2 hPa Calm     66 % 0 mm
14:29 10.7 °C 4.6 °C 1021.2 hPa Calm     66 % 0 mm
14:34 10.9 °C 4.6 °C 1021.2 hPa Calm     65 % 0 mm
14:39 11.1 °C 4.5 °C 1021.2 hPa Calm     64 % 0 mm
14:44 11.2 °C 4.2 °C 1021.2 hPa Calm     62 % 0 mm
14:49 11.2 °C 4.2 °C 1021.2 hPa Calm     62 % 0 mm
14:54 11.1 °C 4.3 °C 1021.2 hPa Calm     63 % 0 mm
14:59 10.9 °C 4.2 °C 1021.2 hPa Calm     63 % 0 mm
15:04 10.9 °C 4.3 °C 1021.2 hPa Calm     64 % 0 mm
15:09 10.7 °C 4.1 °C 1021.2 hPa Calm     64 % 0 mm
15:14 10.6 °C 4.5 °C 1021.2 hPa Calm     66 % 0 mm
15:19 10.6 °C 4.1 °C 1021.2 hPa Calm     64 % 0 mm
15:24 10.7 °C 3.3 °C 1021.2 hPa Calm   0.5 km/h 60 % 0 mm
15:29 11 °C 2.8 °C 1021.2 hPa SSW 1.9 km/h 0.8 km/h 57 % 0 mm
15:34 11 °C 2.8 °C 1021.2 hPa South 3.7 km/h 0.8 km/h 57 % 0 mm
15:39 10.9 °C 3.2 °C 1021.2 hPa Calm     59 % 0 mm
15:44 11 °C 3.3 °C 1021.2 hPa Calm     59 % 0 mm
15:49 11.3 °C 3.1 °C 1021.2 hPa Calm     57 % 0 mm
15:54 11.5 °C 3 °C 1021.2 hPa Calm     56 % 0 mm
15:59 11.7 °C 2.9 °C 1021.2 hPa Calm     55 % 0 mm
16:04 11.9 °C 2.6 °C 1021.2 hPa Calm     53 % 0 mm
16:09 12.1 °C 2.8 °C 1021.2 hPa Calm     53 % 0 mm
16:14 12 °C 2.7 °C 1021.2 hPa South 3.2 km/h 0.5 km/h 53 % 0 mm
16:19 11.8 °C 2.6 °C 1021.6 hPa Calm     53 % 0 mm
16:24 11.7 °C 2.4 °C 1021.6 hPa South 1.9 km/h 0.8 km/h 53 % 0 mm
16:29 11.6 °C 2.8 °C 1021.2 hPa SSW 1.9 km/h 0.3 km/h 55 % 0 mm
16:34 11.4 °C 2.4 °C 1021.6 hPa Calm     54 % 0 mm
16:39 11.4 °C 2.4 °C 1021.6 hPa Calm     54 % 0 mm
16:44 11.2 °C 2.5 °C 1021.6 hPa Calm     55 % 0 mm
16:49 11.2 °C 2.7 °C 1021.6 hPa Calm     56 % 0 mm
16:54 11.1 °C 2.8 °C 1021.6 hPa Calm     57 % 0 mm
16:59 10.9 °C 3 °C 1021.6 hPa Calm     58 % 0 mm
17:04 10.9 °C 3.2 °C 1021.6 hPa Calm     59 % 0 mm
17:09 10.9 °C 3.5 °C 1021.6 hPa Calm     60 % 0 mm
17:14 10.9 °C 3.4 °C 1021.6 hPa Calm     60 % 0 mm
17:19 10.8 °C 3.3 °C 1021.6 hPa Calm     60 % 0 mm
17:24 10.6 °C 3.1 °C 1021.6 hPa Calm     60 % 0 mm
17:29 10.2 °C 3.2 °C 1021.6 hPa Calm     62 % 0 mm
17:34 9.7 °C 3.2 °C 1021.9 hPa Calm     64 % 0 mm
17:39 9.1 °C 3.1 °C 1021.6 hPa Calm     66 % 0 mm
17:44 8.3 °C 3 °C 1021.9 hPa Calm     69 % 0 mm
17:49 7.9 °C 3.2 °C 1021.9 hPa South 1.9 km/h   72 % 0 mm
17:54 7.4 °C 2.9 °C 1021.9 hPa Calm     73 % 0 mm
17:59 7.2 °C 3.1 °C 1021.9 hPa Calm     75 % 0 mm
18:04 6.9 °C 3.1 °C 1021.9 hPa Calm     77 % 0 mm
18:09 6.5 °C 2.9 °C 1021.9 hPa Calm     78 % 0 mm
18:14 6.3 °C 2.9 °C 1021.9 hPa South 1.9 km/h 1.1 km/h 79 % 0 mm
18:19 6.1 °C 2.9 °C 1021.9 hPa Calm     80 % 0 mm
18:24 5.8 °C 2.8 °C 1021.9 hPa Calm     81 % 0 mm
18:29 5.7 °C 2.9 °C 1021.9 hPa Calm     82 % 0 mm
18:34 5.5 °C 2.7 °C 1021.9 hPa Calm     82 % 0 mm
18:39 5.3 °C 2.6 °C 1021.9 hPa Calm     83 % 0 mm
18:44 5.2 °C 2.5 °C 1021.9 hPa Calm     83 % 0 mm
18:49 5.1 °C 2.6 °C 1022.2 hPa Calm     84 % 0 mm
18:54 4.9 °C 2.4 °C 1022.2 hPa Calm     84 % 0 mm
18:59 4.9 °C 2.4 °C 1022.2 hPa Calm     84 % 0 mm
19:04 4.7 °C 2.4 °C 1022.2 hPa Calm     85 % 0 mm
19:09 4.7 °C 2.3 °C 1022.2 hPa Calm     85 % 0 mm
19:14 4.6 °C 2.4 °C 1022.2 hPa Calm     86 % 0 mm
19:19 4.6 °C 2.4 °C 1022.6 hPa Calm     86 % 0 mm
19:24 4.6 °C 2.4 °C 1022.6 hPa Calm     86 % 0 mm
19:29 4.5 °C 2.3 °C 1022.6 hPa Calm     86 % 0 mm
19:34 4.4 °C 2.3 °C 1022.6 hPa Calm     86 % 0 mm
19:39 4.3 °C 2.3 °C 1022.6 hPa Calm     87 % 0 mm
19:44 4.2 °C 2.2 °C 1022.6 hPa Calm     87 % 0 mm
19:49 4.2 °C 2.2 °C 1022.6 hPa Calm     87 % 0 mm
19:54 4.2 °C 2.2 °C 1022.6 hPa Calm     87 % 0 mm
19:59 4.1 °C 2.2 °C 1022.6 hPa Calm     87 % 0 mm
20:04 3.9 °C 2 °C 1022.2 hPa Calm     87 % 0 mm
20:09 3.9 °C 1.9 °C 1022.6 hPa Calm     87 % 0 mm
20:14 3.8 °C 2 °C 1022.6 hPa Calm     88 % 0 mm
20:19 3.8 °C 2 °C 1022.6 hPa Calm     88 % 0 mm
20:24 3.7 °C 1.9 °C 1022.6 hPa Calm     88 % 0 mm
20:29 3.7 °C 2 °C 1022.6 hPa Calm     89 % 0 mm
20:34 3.6 °C 1.8 °C 1022.6 hPa Calm     88 % 0 mm
20:39 3.4 °C 1.7 °C 1022.6 hPa Calm     88 % 0 mm
20:44 3.2 °C 1.4 °C 1022.6 hPa Calm     88 % 0 mm
20:49 3 °C 1.2 °C 1022.6 hPa Calm     88 % 0 mm
20:54 2.8 °C 1.1 °C 1022.6 hPa Calm     88 % 0 mm
20:59 2.7 °C 1.1 °C 1022.6 hPa Calm     89 % 0 mm
21:01 2.8 °C 1.3 °C 1022.6 hPa Calm     90 % 0 mm
21:08 2.8 °C 1.3 °C 1022.6 hPa Calm     90 % 0 mm
21:19 2.7 °C 1.2 °C 1022.6 hPa Calm     90 % 0 mm
21:24 2.9 °C 1.6 °C 1022.6 hPa Calm     91 % 0 mm
21:29 2.8 °C 1.3 °C 1022.6 hPa Calm     90 % 0 mm
21:34 2.7 °C 1.2 °C 1022.6 hPa Calm     90 % 0 mm
21:39 2.6 °C 1.1 °C 1022.6 hPa Calm     90 % 0 mm
21:44 2.5 °C 1 °C 1022.6 hPa Calm     90 % 0 mm
21:49 2.4 °C 0.9 °C 1022.6 hPa Calm     90 % 0 mm
21:54 2.3 °C 0.8 °C 1022.6 hPa Calm     90 % 0 mm
21:59 2.2 °C 0.7 °C 1022.6 hPa Calm     90 % 0 mm
22:04 2.1 °C 0.8 °C 1022.6 hPa Calm     91 % 0 mm
22:09 2 °C 0.7 °C 1022.6 hPa Calm     91 % 0 mm
22:14 1.8 °C 0.4 °C 1022.6 hPa Calm     90 % 0 mm
22:19 1.7 °C 0.4 °C 1022.6 hPa Calm     91 % 0 mm
22:24 1.7 °C 0.3 °C 1022.6 hPa Calm     91 % 0 mm
22:29 1.6 °C 0.3 °C 1022.6 hPa Calm     91 % 0 mm
22:34 1.5 °C 0.2 °C 1022.6 hPa Calm     91 % 0 mm
22:39 1.4 °C 0.1 °C 1022.6 hPa Calm     91 % 0 mm
22:44 1.2 °C -0.1 °C 1022.6 hPa Calm     91 % 0 mm
22:49 1 °C -0.4 °C 1022.6 hPa Calm     90 % 0 mm
22:54 0.9 °C -0.4 °C 1022.6 hPa Calm     91 % 0 mm
22:59 0.9 °C -0.2 °C 1022.6 hPa Calm     92 % 0 mm
23:04 1.1 °C -0.1 °C 1022.6 hPa Calm     92 % 0 mm
23:09 1.1 °C -0.1 °C 1022.6 hPa Calm     92 % 0 mm
23:14 0.9 °C -0.2 °C 1022.6 hPa Calm     92 % 0 mm
23:19 0.8 °C -0.4 °C 1022.6 hPa Calm     91 % 0 mm
23:24 0.6 °C -0.7 °C 1022.6 hPa Calm     91 % 0 mm
23:29 0.4 °C -0.8 °C 1022.6 hPa Calm     91 % 0 mm
23:34 0.4 °C -0.8 °C 1022.6 hPa Calm     92 % 0 mm
23:39 0.4 °C -0.8 °C 1022.6 hPa Calm     92 % 0 mm
23:44 0.3 °C -0.9 °C 1022.6 hPa Calm     92 % 0 mm
23:49 0.2 °C -1 °C 1022.6 hPa Calm     92 % 0 mm
23:54 0.1 °C -1.1 °C 1022.6 hPa Calm     92 % 0 mm
23:59 0.1 °C -1.1 °C 1022.6 hPa Calm     92 % 0 mm
Ararat Weather
Compliments of Weather Underground - 2.25 mb
Click here to send mail.


ABOUT

Live weather data from Ararat, Victoria, Australia, 3377
Data uploaded from Cumulus every 5 minutes to Weather Underground.
This site then downloads the raw data for formatting and display.
Metric and imperial data can be displayed. Graphs and historical data available.
Includes Sun and Moon times and rain image live from BOM.

Check out Ararat Weather on Facebook, Twitter and Google +

Help support ongoing costs by checking out the ads





Follow @AraratWeather